sensor_id;sensor_type;location;lat;lon;timestamp;pressure;altitude;pressure_sealevel;temperature;humidity
10658;BME280;5377;43.276;26.930;2023-04-03T00:00:29;98388.03;;;10.48;100.00
10658;BME280;5377;43.276;26.930;2023-04-03T00:02:56;98382.56;;;10.61;100.00
10658;BME280;5377;43.276;26.930;2023-04-03T00:05:23;98387.75;;;10.75;98.67
10658;BME280;5377;43.276;26.930;2023-04-03T00:07:50;98388.84;;;10.92;96.46
10658;BME280;5377;43.276;26.930;2023-04-03T00:10:17;98385.13;;;11.11;94.33
10658;BME280;5377;43.276;26.930;2023-04-03T00:12:46;98385.50;;;11.15;93.89
10658;BME280;5377;43.276;26.930;2023-04-03T00:15:12;98380.91;;;11.34;92.38
10658;BME280;5377;43.276;26.930;2023-04-03T00:17:39;98384.97;;;11.54;90.88
10658;BME280;5377;43.276;26.930;2023-04-03T00:20:07;98385.38;;;11.70;89.17
10658;BME280;5377;43.276;26.930;2023-04-03T00:22:34;98387.38;;;11.74;88.21
10658;BME280;5377;43.276;26.930;2023-04-03T00:25:01;98390.16;;;11.86;87.60
10658;BME280;5377;43.276;26.930;2023-04-03T00:27:27;98364.28;;;11.73;87.31
10658;BME280;5377;43.276;26.930;2023-04-03T00:29:55;98390.50;;;11.90;86.50
10658;BME280;5377;43.276;26.930;2023-04-03T00:32:22;98380.09;;;11.81;86.77
10658;BME280;5377;43.276;26.930;2023-04-03T00:34:49;98390.50;;;11.90;86.52
10658;BME280;5377;43.276;26.930;2023-04-03T00:37:16;98383.50;;;11.89;86.35
10658;BME280;5377;43.276;26.930;2023-04-03T00:39:43;98379.19;;;11.88;86.56
10658;BME280;5377;43.276;26.930;2023-04-03T00:42:09;98376.97;;;11.84;86.75
10658;BME280;5377;43.276;26.930;2023-04-03T00:47:42;98376.19;;;11.77;87.34
10658;BME280;5377;43.276;26.930;2023-04-03T00:50:09;98364.03;;;11.75;88.12
10658;BME280;5377;43.276;26.930;2023-04-03T00:52:37;98367.88;;;11.67;88.30
10658;BME280;5377;43.276;26.930;2023-04-03T00:55:07;98371.16;;;11.69;89.21
10658;BME280;5377;43.276;26.930;2023-04-03T00:57:35;98369.16;;;11.65;88.86
10658;BME280;5377;43.276;26.930;2023-04-03T01:00:05;98369.50;;;11.68;89.50
10658;BME280;5377;43.276;26.930;2023-04-03T01:02:34;98364.84;;;11.64;90.11
10658;BME280;5377;43.276;26.930;2023-04-03T01:05:03;98360.53;;;11.63;90.39
10658;BME280;5377;43.276;26.930;2023-04-03T01:07:31;98361.78;;;11.60;90.61
10658;BME280;5377;43.276;26.930;2023-04-03T01:10:01;98358.28;;;11.60;90.79
10658;BME280;5377;43.276;26.930;2023-04-03T01:12:31;98357.72;;;11.57;90.82
10658;BME280;5377;43.276;26.930;2023-04-03T01:15:00;98359.34;;;11.59;90.78
10658;BME280;5377;43.276;26.930;2023-04-03T01:17:29;98356.56;;;11.65;90.16
10658;BME280;5377;43.276;26.930;2023-04-03T01:22:50;98349.31;;;11.54;90.58
10658;BME280;5377;43.276;26.930;2023-04-03T01:25:21;98354.44;;;11.55;89.91
10658;BME280;5377;43.276;26.930;2023-04-03T01:27:48;98355.25;;;11.56;90.88
10658;BME280;5377;43.276;26.930;2023-04-03T01:30:18;98355.25;;;11.56;90.13
10658;BME280;5377;43.276;26.930;2023-04-03T01:32:47;98361.66;;;11.55;90.15
10658;BME280;5377;43.276;26.930;2023-04-03T01:35:13;98354.66;;;11.54;90.59
10658;BME280;5377;43.276;26.930;2023-04-03T01:37:40;98364.34;;;11.55;90.31
10658;BME280;5377;43.276;26.930;2023-04-03T01:40:08;98368.53;;;11.51;90.43
10658;BME280;5377;43.276;26.930;2023-04-03T01:42:35;98375.22;;;11.60;90.77
10658;BME280;5377;43.276;26.930;2023-04-03T01:45:02;98373.25;;;11.67;89.15
10658;BME280;5377;43.276;26.930;2023-04-03T01:47:29;98369.25;;;11.58;89.26
10658;BME280;5377;43.276;26.930;2023-04-03T01:49:57;98373.34;;;11.61;89.05
10658;BME280;5377;43.276;26.930;2023-04-03T01:52:24;98370.97;;;11.52;89.81
10658;BME280;5377;43.276;26.930;2023-04-03T01:54:51;98373.75;;;11.46;89.55
10658;BME280;5377;43.276;26.930;2023-04-03T01:57:17;98371.91;;;11.46;90.22
10658;BME280;5377;43.276;26.930;2023-04-03T01:59:44;98374.19;;;11.43;89.85
10658;BME280;5377;43.276;26.930;2023-04-03T02:02:11;98378.97;;;11.41;90.35
10658;BME280;5377;43.276;26.930;2023-04-03T02:04:40;98375.31;;;11.35;90.35
10658;BME280;5377;43.276;26.930;2023-04-03T02:07:08;98378.97;;;11.41;89.96
10658;BME280;5377;43.276;26.930;2023-04-03T02:09:35;98383.38;;;11.35;90.24
10658;BME280;5377;43.276;26.930;2023-04-03T02:12:02;98378.91;;;11.29;91.05
10658;BME280;5377;43.276;26.930;2023-04-03T02:14:29;98373.22;;;11.37;90.39
10658;BME280;5377;43.276;26.930;2023-04-03T02:16:55;98372.28;;;11.32;90.18
10658;BME280;5377;43.276;26.930;2023-04-03T02:19:22;98375.56;;;11.34;90.28
10658;BME280;5377;43.276;26.930;2023-04-03T02:21:49;98372.88;;;11.34;90.09
10658;BME280;5377;43.276;26.930;2023-04-03T02:24:17;98380.19;;;11.27;90.15
10658;BME280;5377;43.276;26.930;2023-04-03T02:26:44;98384.63;;;11.33;90.09
10658;BME280;5377;43.276;26.930;2023-04-03T02:29:11;98379.28;;;11.33;90.33
10658;BME280;5377;43.276;26.930;2023-04-03T02:31:37;98378.69;;;11.31;90.20
10658;BME280;5377;43.276;26.930;2023-04-03T02:34:04;98384.88;;;11.31;90.18
10658;BME280;5377;43.276;26.930;2023-04-03T02:36:31;98381.09;;;11.02;91.73
10658;BME280;5377;43.276;26.930;2023-04-03T02:38:58;98381.69;;;10.86;93.52
10658;BME280;5377;43.276;26.930;2023-04-03T02:41:26;98377.75;;;10.88;93.94
10658;BME280;5377;43.276;26.930;2023-04-03T02:44:00;98377.56;;;10.65;95.33
10658;BME280;5377;43.276;26.930;2023-04-03T02:46:26;98382.22;;;10.01;100.00
10658;BME280;5377;43.276;26.930;2023-04-03T02:48:53;98393.72;;;10.02;100.00
10658;BME280;5377;43.276;26.930;2023-04-03T02:51:20;98393.16;;;9.62;100.00
10658;BME280;5377;43.276;26.930;2023-04-03T02:53:48;98400.59;;;9.60;100.00
10658;BME280;5377;43.276;26.930;2023-04-03T02:56:15;98404.22;;;9.27;100.00
10658;BME280;5377;43.276;26.930;2023-04-03T02:58:43;98398.88;;;9.27;100.00
10658;BME280;5377;43.276;26.930;2023-04-03T03:01:11;98411.69;;;9.12;100.00
10658;BME280;5377;43.276;26.930;2023-04-03T03:03:38;98416.06;;;8.93;100.00
10658;BME280;5377;43.276;26.930;2023-04-03T03:06:06;98422.06;;;8.82;100.00
10658;BME280;5377;43.276;26.930;2023-04-03T03:08:34;98425.94;;;8.86;100.00
10658;BME280;5377;43.276;26.930;2023-04-03T03:11:01;98436.81;;;8.91;100.00
10658;BME280;5377;43.276;26.930;2023-04-03T03:13:28;98431.91;;;8.88;100.00
10658;BME280;5377;43.276;26.930;2023-04-03T03:15:57;98443.16;;;8.97;100.00
10658;BME280;5377;43.276;26.930;2023-04-03T03:18:24;98437.00;;;8.96;100.00
10658;BME280;5377;43.276;26.930;2023-04-03T03:20:51;98434.75;;;8.93;100.00
10658;BME280;5377;43.276;26.930;2023-04-03T03:23:18;98439.44;;;9.11;100.00
10658;BME280;5377;43.276;26.930;2023-04-03T03:25:45;98436.94;;;9.23;100.00
10658;BME280;5377;43.276;26.930;2023-04-03T03:28:12;98442.06;;;9.24;100.00
10658;BME280;5377;43.276;26.930;2023-04-03T03:30:38;98440.41;;;9.30;100.00
10658;BME280;5377;43.276;26.930;2023-04-03T03:33:07;98438.53;;;9.30;100.00
10658;BME280;5377;43.276;26.930;2023-04-03T03:35:33;98446.38;;;9.25;100.00
10658;BME280;5377;43.276;26.930;2023-04-03T03:38:00;98453.41;;;9.13;100.00
10658;BME280;5377;43.276;26.930;2023-04-03T03:40:27;98456.31;;;9.05;100.00
10658;BME280;5377;43.276;26.930;2023-04-03T03:42:54;98459.84;;;8.86;100.00
10658;BME280;5377;43.276;26.930;2023-04-03T03:45:20;98468.47;;;8.88;100.00
10658;BME280;5377;43.276;26.930;2023-04-03T03:47:47;98474.81;;;8.93;100.00
10658;BME280;5377;43.276;26.930;2023-04-03T03:50:15;98472.53;;;8.97;100.00
10658;BME280;5377;43.276;26.930;2023-04-03T03:52:42;98467.44;;;8.89;100.00
10658;BME280;5377;43.276;26.930;2023-04-03T03:55:09;98471.75;;;8.90;100.00
10658;BME280;5377;43.276;26.930;2023-04-03T03:57:36;98469.06;;;8.90;100.00
10658;BME280;5377;43.276;26.930;2023-04-03T04:00:04;98471.50;;;8.98;100.00
10658;BME280;5377;43.276;26.930;2023-04-03T04:02:32;98471.94;;;8.95;100.00
10658;BME280;5377;43.276;26.930;2023-04-03T04:04:59;98465.97;;;8.93;100.00
10658;BME280;5377;43.276;26.930;2023-04-03T04:07:27;98468.47;;;8.88;100.00
10658;BME280;5377;43.276;26.930;2023-04-03T04:09:55;98472.38;;;8.85;100.00
10658;BME280;5377;43.276;26.930;2023-04-03T04:12:21;98472.34;;;8.92;100.00
10658;BME280;5377;43.276;26.930;2023-04-03T04:14:48;98479.31;;;8.99;100.00
10658;BME280;5377;43.276;26.930;2023-04-03T04:17:15;98482.81;;;9.00;100.00
10658;BME280;5377;43.276;26.930;2023-04-03T04:19:41;98479.09;;;9.01;100.00
10658;BME280;5377;43.276;26.930;2023-04-03T04:22:08;98477.47;;;9.06;100.00
10658;BME280;5377;43.276;26.930;2023-04-03T04:24:36;98470.28;;;9.07;100.00
10658;BME280;5377;43.276;26.930;2023-04-03T04:27:03;98478.50;;;9.05;100.00
10658;BME280;5377;43.276;26.930;2023-04-03T04:29:30;98480.97;;;9.07;100.00
10658;BME280;5377;43.276;26.930;2023-04-03T04:32:00;98481.16;;;9.12;100.00
10658;BME280;5377;43.276;26.930;2023-04-03T04:34:27;98480.50;;;9.23;100.00
10658;BME280;5377;43.276;26.930;2023-04-03T04:36:54;98477.22;;;9.21;100.00
10658;BME280;5377;43.276;26.930;2023-04-03T04:39:21;98482.94;;;9.31;100.00
10658;BME280;5377;43.276;26.930;2023-04-03T04:41:49;98484.59;;;9.32;100.00
10658;BME280;5377;43.276;26.930;2023-04-03T04:44:16;98476.78;;;9.31;100.00
10658;BME280;5377;43.276;26.930;2023-04-03T04:46:43;98475.78;;;9.25;100.00
10658;BME280;5377;43.276;26.930;2023-04-03T04:49:10;98489.47;;;9.49;100.00
10658;BME280;5377;43.276;26.930;2023-04-03T04:51:37;98486.56;;;9.57;100.00
10658;BME280;5377;43.276;26.930;2023-04-03T04:54:04;98483.03;;;9.63;100.00
10658;BME280;5377;43.276;26.930;2023-04-03T04:56:31;98483.13;;;9.43;100.00
10658;BME280;5377;43.276;26.930;2023-04-03T04:59:00;98483.22;;;9.68;100.00
10658;BME280;5377;43.276;26.930;2023-04-03T05:01:27;98485.06;;;9.74;100.00
10658;BME280;5377;43.276;26.930;2023-04-03T05:03:54;98481.41;;;9.62;100.00
10658;BME280;5377;43.276;26.930;2023-04-03T05:06:21;98487.53;;;9.69;100.00
10658;BME280;5377;43.276;26.930;2023-04-03T05:08:47;98485.25;;;9.79;100.00
10658;BME280;5377;43.276;26.930;2023-04-03T05:11:14;98473.94;;;9.77;100.00
10658;BME280;5377;43.276;26.930;2023-04-03T05:13:41;98484.81;;;9.82;100.00
10658;BME280;5377;43.276;26.930;2023-04-03T05:16:09;98481.22;;;9.95;100.00
10658;BME280;5377;43.276;26.930;2023-04-03T05:18:36;98489.00;;;10.10;100.00
10658;BME280;5377;43.276;26.930;2023-04-03T05:21:03;98491.84;;;10.15;100.00
10658;BME280;5377;43.276;26.930;2023-04-03T05:23:30;98494.44;;;10.28;100.00
10658;BME280;5377;43.276;26.930;2023-04-03T05:25:57;98498.41;;;10.50;100.00
10658;BME280;5377;43.276;26.930;2023-04-03T05:28:24;98503.97;;;10.74;100.00
10658;BME280;5377;43.276;26.930;2023-04-03T05:30:54;98495.19;;;10.91;100.00
10658;BME280;5377;43.276;26.930;2023-04-03T05:33:23;98501.22;;;11.05;100.00
10658;BME280;5377;43.276;26.930;2023-04-03T05:35:51;98499.91;;;11.14;100.00
10658;BME280;5377;43.276;26.930;2023-04-03T05:38:18;98506.91;;;11.15;100.00
10658;BME280;5377;43.276;26.930;2023-04-03T05:40:46;98503.41;;;11.33;100.00
10658;BME280;5377;43.276;26.930;2023-04-03T05:43:13;98511.97;;;11.23;100.00
10658;BME280;5377;43.276;26.930;2023-04-03T05:45:40;98512.72;;;11.31;100.00
10658;BME280;5377;43.276;26.930;2023-04-03T05:48:07;98512.28;;;11.52;100.00
10658;BME280;5377;43.276;26.930;2023-04-03T05:50:35;98514.63;;;11.85;100.00
10658;BME280;5377;43.276;26.930;2023-04-03T05:53:08;98518.22;;;12.09;100.00
10658;BME280;5377;43.276;26.930;2023-04-03T05:55:41;98520.25;;;12.25;96.27
10658;BME280;5377;43.276;26.930;2023-04-03T05:58:07;98517.72;;;12.30;91.09
10658;BME280;5377;43.276;26.930;2023-04-03T06:00:34;98516.28;;;12.58;91.15
10658;BME280;5377;43.276;26.930;2023-04-03T06:03:01;98525.41;;;12.80;88.48
10658;BME280;5377;43.276;26.930;2023-04-03T06:05:28;98524.50;;;12.86;86.34
10658;BME280;5377;43.276;26.930;2023-04-03T06:07:56;98531.63;;;13.16;85.47
10658;BME280;5377;43.276;26.930;2023-04-03T06:10:23;98533.66;;;13.32;84.55
10658;BME280;5377;43.276;26.930;2023-04-03T06:12:50;98544.78;;;13.24;84.05
10658;BME280;5377;43.276;26.930;2023-04-03T06:15:17;98550.03;;;13.42;84.09
10658;BME280;5377;43.276;26.930;2023-04-03T06:17:44;98554.34;;;13.43;79.57
10658;BME280;5377;43.276;26.930;2023-04-03T06:20:11;98549.66;;;13.62;78.58
10658;BME280;5377;43.276;26.930;2023-04-03T06:22:39;98550.03;;;13.42;80.76
10658;BME280;5377;43.276;26.930;2023-04-03T06:25:09;98548.25;;;13.48;80.56
10658;BME280;5377;43.276;26.930;2023-04-03T06:27:36;98540.66;;;13.56;79.88
10658;BME280;5377;43.276;26.930;2023-04-03T06:30:04;98549.84;;;13.84;78.27
10658;BME280;5377;43.276;26.930;2023-04-03T06:32:31;98539.47;;;14.04;76.09
10658;BME280;5377;43.276;26.930;2023-04-03T06:34:58;98543.81;;;14.05;76.01
10658;BME280;5377;43.276;26.930;2023-04-03T06:37:25;98548.97;;;14.35;76.49
10658;BME280;5377;43.276;26.930;2023-04-03T06:39:54;98552.88;;;14.56;73.58
10658;BME280;5377;43.276;26.930;2023-04-03T06:42:23;98552.00;;;14.84;72.60
10658;BME280;5377;43.276;26.930;2023-04-03T06:44:49;98546.63;;;15.01;70.98
10658;BME280;5377;43.276;26.930;2023-04-03T06:47:16;98536.81;;;15.28;71.66
10658;BME280;5377;43.276;26.930;2023-04-03T06:49:44;98533.25;;;15.44;69.46
10658;BME280;5377;43.276;26.930;2023-04-03T06:52:11;98523.97;;;15.74;68.89
10658;BME280;5377;43.276;26.930;2023-04-03T06:54:38;98538.09;;;15.81;66.82
10658;BME280;5377;43.276;26.930;2023-04-03T06:57:05;98552.84;;;15.95;67.53
10658;BME280;5377;43.276;26.930;2023-04-03T06:59:34;98551.88;;;16.01;66.38
10658;BME280;5377;43.276;26.930;2023-04-03T07:02:01;98546.06;;;15.93;65.81
10658;BME280;5377;43.276;26.930;2023-04-03T07:04:28;98549.34;;;15.73;65.46
10658;BME280;5377;43.276;26.930;2023-04-03T07:06:55;98554.13;;;15.66;66.01
10658;BME280;5377;43.276;26.930;2023-04-03T07:09:22;98550.41;;;15.55;66.72
10658;BME280;5377;43.276;26.930;2023-04-03T07:11:48;98550.34;;;15.88;65.97
10658;BME280;5377;43.276;26.930;2023-04-03T07:14:15;98554.97;;;15.93;64.60
10658;BME280;5377;43.276;26.930;2023-04-03T07:16:43;98563.75;;;16.00;64.66
10658;BME280;5377;43.276;26.930;2023-04-03T07:19:10;98562.59;;;16.18;64.07
10658;BME280;5377;43.276;26.930;2023-04-03T07:21:37;98522.31;;;16.16;63.76
10658;BME280;5377;43.276;26.930;2023-04-03T07:24:04;98563.75;;;16.49;63.53
10658;BME280;5377;43.276;26.930;2023-04-03T07:26:31;98561.78;;;16.66;63.87
10658;BME280;5377;43.276;26.930;2023-04-03T07:28:58;98570.53;;;16.03;66.93
10658;BME280;5377;43.276;26.930;2023-04-03T07:31:25;98565.53;;;15.56;71.74
10658;BME280;5377;43.276;26.930;2023-04-03T07:33:53;98572.13;;;15.26;71.27
10658;BME280;5377;43.276;26.930;2023-04-03T07:36:21;98572.81;;;15.55;71.37
10658;BME280;5377;43.276;26.930;2023-04-03T07:38:49;98569.03;;;15.56;72.18
10658;BME280;5377;43.276;26.930;2023-04-03T07:41:17;98572.50;;;15.90;73.33
10658;BME280;5377;43.276;26.930;2023-04-03T07:43:45;98578.94;;;16.06;69.17
10658;BME280;5377;43.276;26.930;2023-04-03T07:46:15;98583.47;;;16.71;67.08
10658;BME280;5377;43.276;26.930;2023-04-03T07:48:42;98592.44;;;17.04;65.29
10658;BME280;5377;43.276;26.930;2023-04-03T07:51:11;98592.19;;;16.57;65.34
10658;BME280;5377;43.276;26.930;2023-04-03T07:53:39;98582.59;;;16.98;64.23
10658;BME280;5377;43.276;26.930;2023-04-03T07:56:06;98592.22;;;17.48;62.81
10658;BME280;5377;43.276;26.930;2023-04-03T07:58:33;98574.56;;;17.82;61.80
10658;BME280;5377;43.276;26.930;2023-04-03T08:01:00;98570.09;;;17.61;61.78
10658;BME280;5377;43.276;26.930;2023-04-03T08:03:27;98571.38;;;17.11;62.72
10658;BME280;5377;43.276;26.930;2023-04-03T08:05:54;98565.50;;;17.66;61.31
10658;BME280;5377;43.276;26.930;2023-04-03T08:08:22;98561.59;;;17.89;57.72
10658;BME280;5377;43.276;26.930;2023-04-03T08:10:50;98561.69;;;18.04;57.53
10658;BME280;5377;43.276;26.930;2023-04-03T08:13:17;98554.50;;;18.46;53.96
10658;BME280;5377;43.276;26.930;2023-04-03T08:15:44;98561.91;;;19.21;54.08
10658;BME280;5377;43.276;26.930;2023-04-03T08:18:11;98560.81;;;19.32;54.05
10658;BME280;5377;43.276;26.930;2023-04-03T08:20:38;98560.47;;;19.85;53.84
10658;BME280;5377;43.276;26.930;2023-04-03T08:23:06;98546.50;;;20.07;50.17
10658;BME280;5377;43.276;26.930;2023-04-03T08:25:40;98548.31;;;20.27;51.53
10658;BME280;5377;43.276;26.930;2023-04-03T08:28:07;98547.44;;;20.36;49.45
10658;BME280;5377;43.276;26.930;2023-04-03T08:30:34;98547.00;;;20.68;50.03
10658;BME280;5377;43.276;26.930;2023-04-03T08:33:01;98546.03;;;20.93;47.50
10658;BME280;5377;43.276;26.930;2023-04-03T08:35:28;98557.34;;;21.39;46.92
10658;BME280;5377;43.276;26.930;2023-04-03T08:37:55;98556.34;;;21.59;46.71
10658;BME280;5377;43.276;26.930;2023-04-03T08:40:22;98553.97;;;21.24;46.00
10658;BME280;5377;43.276;26.930;2023-04-03T08:42:59;98545.50;;;20.52;46.94
10658;BME280;5377;43.276;26.930;2023-04-03T08:45:37;98542.13;;;20.65;47.19
10658;BME280;5377;43.276;26.930;2023-04-03T08:48:13;98536.72;;;20.99;46.95
10658;BME280;5377;43.276;26.930;2023-04-03T08:50:43;98540.09;;;21.20;46.11
10658;BME280;5377;43.276;26.930;2023-04-03T08:53:14;98538.69;;;21.28;45.80
10658;BME280;5377;43.276;26.930;2023-04-03T08:55:43;98539.69;;;21.03;46.27
10658;BME280;5377;43.276;26.930;2023-04-03T08:58:15;98535.03;;;21.03;47.20
10658;BME280;5377;43.276;26.930;2023-04-03T09:00:45;98525.72;;;21.09;45.56
10658;BME280;5377;43.276;26.930;2023-04-03T09:03:15;98525.59;;;20.96;45.96
10658;BME280;5377;43.276;26.930;2023-04-03T09:05:46;98522.72;;;20.77;47.01
10658;BME280;5377;43.276;26.930;2023-04-03T09:08:21;98514.66;;;20.67;46.47
10658;BME280;5377;43.276;26.930;2023-04-03T09:10:49;98517.97;;;20.59;46.72
10658;BME280;5377;43.276;26.930;2023-04-03T09:13:24;98518.75;;;20.64;46.01
10658;BME280;5377;43.276;26.930;2023-04-03T09:15:56;98494.31;;;20.05;47.98
10658;BME280;5377;43.276;26.930;2023-04-03T09:18:26;98506.94;;;19.85;49.19
10658;BME280;5377;43.276;26.930;2023-04-03T09:21:04;98503.09;;;19.91;49.03
10658;BME280;5377;43.276;26.930;2023-04-03T09:23:40;98507.56;;;19.47;50.67
10658;BME280;5377;43.276;26.930;2023-04-03T09:26:13;98503.25;;;19.25;51.90
10658;BME280;5377;43.276;26.930;2023-04-03T09:28:42;98503.53;;;19.19;52.03
10658;BME280;5377;43.276;26.930;2023-04-03T09:31:18;98508.09;;;19.49;51.51
10658;BME280;5377;43.276;26.930;2023-04-03T09:33:46;98508.97;;;19.19;51.39
10658;BME280;5377;43.276;26.930;2023-04-03T09:36:37;98507.63;;;19.11;52.64
10658;BME280;5377;43.276;26.930;2023-04-03T09:39:05;98512.78;;;19.18;52.91
10658;BME280;5377;43.276;26.930;2023-04-03T09:41:31;98507.88;;;19.30;53.30
10658;BME280;5377;43.276;26.930;2023-04-03T09:44:00;98508.91;;;19.49;51.31
10658;BME280;5377;43.276;26.930;2023-04-03T09:46:32;98512.63;;;19.89;51.92
10658;BME280;5377;43.276;26.930;2023-04-03T09:49:00;98504.56;;;20.23;49.98
10658;BME280;5377;43.276;26.930;2023-04-03T09:51:28;98513.13;;;20.50;48.83
10658;BME280;5377;43.276;26.930;2023-04-03T09:53:56;98517.09;;;20.68;46.43
10658;BME280;5377;43.276;26.930;2023-04-03T09:56:25;98501.66;;;20.93;46.57
10658;BME280;5377;43.276;26.930;2023-04-03T09:59:08;98506.63;;;21.14;47.74
10658;BME280;5377;43.276;26.930;2023-04-03T10:01:41;98504.50;;;21.06;45.99
10658;BME280;5377;43.276;26.930;2023-04-03T10:04:10;98498.88;;;21.32;45.92
10658;BME280;5377;43.276;26.930;2023-04-03T10:06:40;98491.03;;;22.21;44.88
10658;BME280;5377;43.276;26.930;2023-04-03T10:09:18;98489.69;;;22.37;43.84
10658;BME280;5377;43.276;26.930;2023-04-03T10:12:01;98483.31;;;23.12;43.54
10658;BME280;5377;43.276;26.930;2023-04-03T10:14:32;98496.78;;;23.82;41.82
10658;BME280;5377;43.276;26.930;2023-04-03T10:17:05;98497.78;;;23.86;41.54
10658;BME280;5377;43.276;26.930;2023-04-03T10:19:39;98490.44;;;23.26;40.27
10658;BME280;5377;43.276;26.930;2023-04-03T10:22:17;98498.25;;;23.33;41.38
10658;BME280;5377;43.276;26.930;2023-04-03T10:24:52;98506.19;;;22.83;41.45
10658;BME280;5377;43.276;26.930;2023-04-03T10:27:33;98497.84;;;22.18;41.72
10658;BME280;5377;43.276;26.930;2023-04-03T10:30:18;98507.09;;;21.27;43.16
10658;BME280;5377;43.276;26.930;2023-04-03T10:32:57;98496.91;;;19.81;45.59
10658;BME280;5377;43.276;26.930;2023-04-03T10:35:35;98500.28;;;19.17;47.58
10658;BME280;5377;43.276;26.930;2023-04-03T10:38:09;98463.66;;;18.94;48.04
10658;BME280;5377;43.276;26.930;2023-04-03T10:40:45;98485.63;;;19.18;49.04
10658;BME280;5377;43.276;26.930;2023-04-03T10:43:18;98489.94;;;19.34;48.61
10658;BME280;5377;43.276;26.930;2023-04-03T10:45:53;98481.56;;;19.05;48.79
10658;BME280;5377;43.276;26.930;2023-04-03T10:51:25;98494.91;;;18.76;54.44
10658;BME280;5377;43.276;26.930;2023-04-03T10:53:57;98488.00;;;18.13;55.81
10658;BME280;5377;43.276;26.930;2023-04-03T10:56:31;98484.13;;;17.88;56.76
10658;BME280;5377;43.276;26.930;2023-04-03T10:59:13;98487.41;;;18.00;58.20
10658;BME280;5377;43.276;26.930;2023-04-03T11:01:46;98489.53;;;17.88;58.60
10658;BME280;5377;43.276;26.930;2023-04-03T11:04:16;98488.84;;;17.61;59.12
10658;BME280;5377;43.276;26.930;2023-04-03T11:06:47;98484.13;;;17.88;59.35
10658;BME280;5377;43.276;26.930;2023-04-03T11:09:22;98486.63;;;18.10;58.25
10658;BME280;5377;43.276;26.930;2023-04-03T11:11:54;98483.13;;;18.30;57.82
10658;BME280;5377;43.276;26.930;2023-04-03T11:14:26;98482.59;;;18.23;57.11
10658;BME280;5377;43.276;26.930;2023-04-03T11:17:04;98481.81;;;18.48;57.44
10658;BME280;5377;43.276;26.930;2023-04-03T11:19:35;98481.59;;;18.64;55.79
10658;BME280;5377;43.276;26.930;2023-04-03T11:22:08;98482.38;;;18.55;55.88
10658;BME280;5377;43.276;26.930;2023-04-03T11:24:39;98492.06;;;18.25;57.92
10658;BME280;5377;43.276;26.930;2023-04-03T11:27:16;98493.72;;;18.26;57.54
10658;BME280;5377;43.276;26.930;2023-04-03T11:29:45;98486.94;;;18.34;56.46
10658;BME280;5377;43.276;26.930;2023-04-03T11:32:33;98490.47;;;18.29;56.06
10658;BME280;5377;43.276;26.930;2023-04-03T11:35:05;98493.34;;;17.97;56.33
10658;BME280;5377;43.276;26.930;2023-04-03T11:37:35;98492.75;;;17.75;56.49
10658;BME280;5377;43.276;26.930;2023-04-03T11:40:06;98508.19;;;17.32;57.79
10658;BME280;5377;43.276;26.930;2023-04-03T11:42:37;98495.47;;;17.33;58.08
10658;BME280;5377;43.276;26.930;2023-04-03T11:45:34;98505.44;;;17.27;57.61
10658;BME280;5377;43.276;26.930;2023-04-03T11:48:05;98503.81;;;17.26;58.00
10658;BME280;5377;43.276;26.930;2023-04-03T11:50:44;98477.84;;;17.30;57.47
10658;BME280;5377;43.276;26.930;2023-04-03T11:53:31;98471.16;;;17.38;56.72
10658;BME280;5377;43.276;26.930;2023-04-03T11:56:04;98470.16;;;17.07;56.64
10658;BME280;5377;43.276;26.930;2023-04-03T11:59:16;98467.31;;;16.92;55.60
10658;BME280;5377;43.276;26.930;2023-04-03T12:01:49;98457.41;;;17.02;55.41
10658;BME280;5377;43.276;26.930;2023-04-03T12:04:19;98445.31;;;17.15;55.46
10658;BME280;5377;43.276;26.930;2023-04-03T12:06:53;98412.84;;;17.15;56.54
10658;BME280;5377;43.276;26.930;2023-04-03T12:09:27;98428.66;;;17.38;56.21
10658;BME280;5377;43.276;26.930;2023-04-03T12:11:56;98424.72;;;17.09;56.94
10658;BME280;5377;43.276;26.930;2023-04-03T12:14:25;98407.53;;;16.88;57.19
10658;BME280;5377;43.276;26.930;2023-04-03T12:16:53;98413.75;;;16.89;57.26
10658;BME280;5377;43.276;26.930;2023-04-03T12:19:34;98418.84;;;16.80;57.85
10658;BME280;5377;43.276;26.930;2023-04-03T12:22:13;98398.66;;;16.98;58.05
10658;BME280;5377;43.276;26.930;2023-04-03T12:24:42;98409.63;;;17.23;58.14
10658;BME280;5377;43.276;26.930;2023-04-03T12:27:33;98412.84;;;17.20;58.40
10658;BME280;5377;43.276;26.930;2023-04-03T12:30:13;98418.03;;;17.32;58.29
10658;BME280;5377;43.276;26.930;2023-04-03T12:33:12;98423.25;;;17.43;58.72
10658;BME280;5377;43.276;26.930;2023-04-03T12:35:54;98435.59;;;17.71;59.77
10658;BME280;5377;43.276;26.930;2023-04-03T12:38:41;98438.84;;;17.79;60.15
10658;BME280;5377;43.276;26.930;2023-04-03T12:41:19;98436.81;;;17.49;60.49
10658;BME280;5377;43.276;26.930;2023-04-03T12:44:01;98431.84;;;17.88;60.88
10658;BME280;5377;43.276;26.930;2023-04-03T12:46:37;98438.94;;;18.19;59.40
10658;BME280;5377;43.276;26.930;2023-04-03T12:49:18;98438.34;;;18.02;59.33
10658;BME280;5377;43.276;26.930;2023-04-03T12:51:50;98426.91;;;17.69;58.47
10658;BME280;5377;43.276;26.930;2023-04-03T12:54:20;98428.09;;;17.36;59.42
10658;BME280;5377;43.276;26.930;2023-04-03T12:56:50;98432.19;;;17.39;59.38
10658;BME280;5377;43.276;26.930;2023-04-03T12:59:20;98428.38;;;17.40;58.54
10658;BME280;5377;43.276;26.930;2023-04-03T13:01:53;98425.94;;;17.38;58.41
10658;BME280;5377;43.276;26.930;2023-04-03T13:04:20;98423.38;;;17.17;59.05
10658;BME280;5377;43.276;26.930;2023-04-03T13:06:47;98420.66;;;17.11;60.53
10658;BME280;5377;43.276;26.930;2023-04-03T13:09:20;98413.66;;;17.15;61.19
10658;BME280;5377;43.276;26.930;2023-04-03T13:11:49;98415.59;;;17.25;59.93
10658;BME280;5377;43.276;26.930;2023-04-03T13:14:19;98411.81;;;17.31;59.59
10658;BME280;5377;43.276;26.930;2023-04-03T13:16:53;98402.31;;;17.24;59.31
10658;BME280;5377;43.276;26.930;2023-04-03T13:19:22;98417.75;;;17.23;58.40
10658;BME280;5377;43.276;26.930;2023-04-03T13:21:53;98413.06;;;17.03;58.13